sensor_id;sensor_type;location;lat;lon;timestamp;pressure;altitude;pressure_sealevel;temperature;humidity
68301;BME280;55146;47.468;18.806;2023-05-09T00:01:35;100817.28;;;10.55;55.59
68301;BME280;55146;47.468;18.806;2023-05-09T00:04:00;100820.34;;;10.59;55.24
68301;BME280;55146;47.468;18.806;2023-05-09T00:06:26;100815.28;;;10.50;54.34
68301;BME280;55146;47.468;18.806;2023-05-09T00:08:52;100825.75;;;10.48;54.66
68301;BME280;55146;47.468;18.806;2023-05-09T00:11:18;100824.63;;;10.49;55.54
68301;BME280;55146;47.468;18.806;2023-05-09T00:13:43;100823.28;;;10.52;55.35
68301;BME280;55146;47.468;18.806;2023-05-09T00:16:09;100830.22;;;10.54;56.11
68301;BME280;55146;47.468;18.806;2023-05-09T00:18:36;100819.47;;;10.53;56.59
68301;BME280;55146;47.468;18.806;2023-05-09T00:21:01;100814.78;;;10.53;56.42
68301;BME280;55146;47.468;18.806;2023-05-09T00:23:28;100814.22;;;10.51;56.99
68301;BME280;55146;47.468;18.806;2023-05-09T00:25:54;100808.66;;;10.46;57.17
68301;BME280;55146;47.468;18.806;2023-05-09T00:28:19;100811.00;;;10.38;56.86
68301;BME280;55146;47.468;18.806;2023-05-09T00:30:44;100813.94;;;10.31;57.54
68301;BME280;55146;47.468;18.806;2023-05-09T00:33:10;100818.53;;;10.26;57.54
68301;BME280;55146;47.468;18.806;2023-05-09T00:35:35;100814.34;;;10.18;56.78
68301;BME280;55146;47.468;18.806;2023-05-09T00:38:01;100808.31;;;10.21;57.70
68301;BME280;55146;47.468;18.806;2023-05-09T00:40:26;100807.47;;;10.21;57.91
68301;BME280;55146;47.468;18.806;2023-05-09T00:42:51;100804.41;;;10.17;58.06
68301;BME280;55146;47.468;18.806;2023-05-09T00:45:17;100796.19;;;10.17;57.89
68301;BME280;55146;47.468;18.806;2023-05-09T00:47:42;100794.72;;;10.14;58.22
68301;BME280;55146;47.468;18.806;2023-05-09T00:50:08;100791.66;;;10.11;58.24
68301;BME280;55146;47.468;18.806;2023-05-09T00:52:33;100791.06;;;10.09;58.05
68301;BME280;55146;47.468;18.806;2023-05-09T00:55:01;100788.31;;;10.09;58.84
68301;BME280;55146;47.468;18.806;2023-05-09T00:57:26;100794.06;;;10.07;58.58
68301;BME280;55146;47.468;18.806;2023-05-09T00:59:51;100801.47;;;10.07;58.81
68301;BME280;55146;47.468;18.806;2023-05-09T01:02:17;100798.72;;;10.07;58.83
68301;BME280;55146;47.468;18.806;2023-05-09T01:04:44;100797.09;;;10.06;58.72
68301;BME280;55146;47.468;18.806;2023-05-09T01:07:18;100795.91;;;10.02;58.80
68301;BME280;55146;47.468;18.806;2023-05-09T01:10:09;100798.00;;;9.95;58.69
68301;BME280;55146;47.468;18.806;2023-05-09T01:12:48;100795.53;;;9.93;58.59
68301;BME280;55146;47.468;18.806;2023-05-09T01:15:36;100799.84;;;9.89;58.61
68301;BME280;55146;47.468;18.806;2023-05-09T01:18:14;100794.03;;;9.86;59.39
68301;BME280;55146;47.468;18.806;2023-05-09T01:21:05;100796.44;;;9.82;59.92
68301;BME280;55146;47.468;18.806;2023-05-09T01:26:43;100793.31;;;9.73;60.11
68301;BME280;55146;47.468;18.806;2023-05-09T01:29:32;100798.81;;;9.73;60.16
68301;BME280;55146;47.468;18.806;2023-05-09T01:32:02;100798.41;;;9.65;60.51
68301;BME280;55146;47.468;18.806;2023-05-09T01:34:29;100797.72;;;9.58;60.55
68301;BME280;55146;47.468;18.806;2023-05-09T01:36:58;100795.25;;;9.56;60.83
68301;BME280;55146;47.468;18.806;2023-05-09T01:39:25;100796.56;;;9.54;60.90
68301;BME280;55146;47.468;18.806;2023-05-09T01:41:53;100795.16;;;9.51;61.21
68301;BME280;55146;47.468;18.806;2023-05-09T01:44:21;100792.41;;;9.51;60.98
68301;BME280;55146;47.468;18.806;2023-05-09T01:46:50;100779.44;;;9.47;60.99
68301;BME280;55146;47.468;18.806;2023-05-09T01:49:17;100785.16;;;9.45;61.38
68301;BME280;55146;47.468;18.806;2023-05-09T01:51:44;100783.53;;;9.44;61.01
68301;BME280;55146;47.468;18.806;2023-05-09T01:54:12;100780.19;;;9.42;61.03
68301;BME280;55146;47.468;18.806;2023-05-09T01:56:39;100783.75;;;9.43;60.72
68301;BME280;55146;47.468;18.806;2023-05-09T01:59:07;100778.53;;;9.41;60.94
68301;BME280;55146;47.468;18.806;2023-05-09T02:01:33;100777.09;;;9.39;61.02
68301;BME280;55146;47.468;18.806;2023-05-09T02:03:59;100778.75;;;9.40;61.53
68301;BME280;55146;47.468;18.806;2023-05-09T02:06:25;100774.78;;;9.30;61.62
68301;BME280;55146;47.468;18.806;2023-05-09T02:08:54;100772.53;;;9.27;61.36
68301;BME280;55146;47.468;18.806;2023-05-09T02:11:20;100777.69;;;9.24;61.24
68301;BME280;55146;47.468;18.806;2023-05-09T02:13:45;100772.94;;;9.19;61.85
68301;BME280;55146;47.468;18.806;2023-05-09T02:16:11;100770.94;;;9.15;62.26
68301;BME280;55146;47.468;18.806;2023-05-09T02:18:36;100764.28;;;9.11;62.47
68301;BME280;55146;47.468;18.806;2023-05-09T02:21:02;100767.03;;;9.11;62.66
68301;BME280;55146;47.468;18.806;2023-05-09T02:23:28;100769.19;;;9.09;62.70
68301;BME280;55146;47.468;18.806;2023-05-09T02:25:54;100766.94;;;9.06;62.63
68301;BME280;55146;47.468;18.806;2023-05-09T02:28:21;100762.78;;;9.03;63.67
68301;BME280;55146;47.468;18.806;2023-05-09T02:30:48;100766.03;;;9.00;63.90
68301;BME280;55146;47.468;18.806;2023-05-09T02:33:14;100763.44;;;8.93;63.54
68301;BME280;55146;47.468;18.806;2023-05-09T02:35:41;100759.03;;;8.92;63.65
68301;BME280;55146;47.468;18.806;2023-05-09T02:38:08;100766.81;;;8.84;63.63
68301;BME280;55146;47.468;18.806;2023-05-09T02:40:34;100759.34;;;8.79;63.60
68301;BME280;55146;47.468;18.806;2023-05-09T02:43:00;100768.06;;;8.76;63.26
68301;BME280;55146;47.468;18.806;2023-05-09T02:45:26;100769.47;;;8.79;63.90
68301;BME280;55146;47.468;18.806;2023-05-09T02:47:51;100757.56;;;8.73;64.48
68301;BME280;55146;47.468;18.806;2023-05-09T02:50:16;100758.31;;;8.69;64.22
68301;BME280;55146;47.468;18.806;2023-05-09T02:52:42;100760.22;;;8.68;64.30
68301;BME280;55146;47.468;18.806;2023-05-09T02:55:08;100768.94;;;8.65;64.43
68301;BME280;55146;47.468;18.806;2023-05-09T02:57:33;100763.59;;;8.59;64.81
68301;BME280;55146;47.468;18.806;2023-05-09T02:59:59;100755.97;;;8.61;64.83
68301;BME280;55146;47.468;18.806;2023-05-09T03:02:24;100762.44;;;8.55;65.09
68301;BME280;55146;47.468;18.806;2023-05-09T03:04:50;100757.09;;;8.48;65.21
68301;BME280;55146;47.468;18.806;2023-05-09T03:07:15;100758.16;;;8.47;65.72
68301;BME280;55146;47.468;18.806;2023-05-09T03:09:40;100760.06;;;8.46;65.90
68301;BME280;55146;47.468;18.806;2023-05-09T03:12:06;100750.78;;;8.47;66.14
68301;BME280;55146;47.468;18.806;2023-05-09T03:14:31;100749.09;;;8.46;66.11
68301;BME280;55146;47.468;18.806;2023-05-09T03:16:57;100753.66;;;8.41;65.89
68301;BME280;55146;47.468;18.806;2023-05-09T03:19:22;100749.25;;;8.40;66.09
68301;BME280;55146;47.468;18.806;2023-05-09T03:21:48;100754.25;;;8.43;66.27
68301;BME280;55146;47.468;18.806;2023-05-09T03:24:13;100752.81;;;8.40;66.29
68301;BME280;55146;47.468;18.806;2023-05-09T03:26:39;100753.56;;;8.36;66.69
68301;BME280;55146;47.468;18.806;2023-05-09T03:29:04;100753.66;;;8.29;66.54
68301;BME280;55146;47.468;18.806;2023-05-09T03:31:29;100758.09;;;8.30;66.77
68301;BME280;55146;47.468;18.806;2023-05-09T03:33:55;100762.13;;;8.28;67.17
68301;BME280;55146;47.468;18.806;2023-05-09T03:36:20;100759.97;;;8.30;67.94
68301;BME280;55146;47.468;18.806;2023-05-09T03:38:47;100763.91;;;8.34;68.32
68301;BME280;55146;47.468;18.806;2023-05-09T03:41:15;100758.94;;;8.31;68.62
68301;BME280;55146;47.468;18.806;2023-05-09T03:43:41;100757.59;;;8.33;69.59
68301;BME280;55146;47.468;18.806;2023-05-09T03:46:06;100764.19;;;8.32;69.73
68301;BME280;55146;47.468;18.806;2023-05-09T03:48:31;100765.03;;;8.33;69.36
68301;BME280;55146;47.468;18.806;2023-05-09T03:50:57;100761.69;;;8.31;69.40
68301;BME280;55146;47.468;18.806;2023-05-09T03:53:22;100768.00;;;8.31;69.84
68301;BME280;55146;47.468;18.806;2023-05-09T03:55:47;100767.16;;;8.31;70.54
68301;BME280;55146;47.468;18.806;2023-05-09T03:58:13;100767.50;;;8.34;70.97
68301;BME280;55146;47.468;18.806;2023-05-09T04:00:39;100766.44;;;8.35;71.13
68301;BME280;55146;47.468;18.806;2023-05-09T04:03:05;100772.28;;;8.39;71.08
68301;BME280;55146;47.468;18.806;2023-05-09T04:05:31;100768.19;;;8.41;71.23
68301;BME280;55146;47.468;18.806;2023-05-09T04:07:58;100780.00;;;8.42;71.67
68301;BME280;55146;47.468;18.806;2023-05-09T04:10:23;100771.03;;;8.46;71.97
68301;BME280;55146;47.468;18.806;2023-05-09T04:12:49;100766.25;;;8.53;72.37
68301;BME280;55146;47.468;18.806;2023-05-09T04:15:15;100767.91;;;8.55;71.87
68301;BME280;55146;47.468;18.806;2023-05-09T04:17:41;100777.31;;;8.59;71.57
68301;BME280;55146;47.468;18.806;2023-05-09T04:20:07;100775.66;;;8.58;71.44
68301;BME280;55146;47.468;18.806;2023-05-09T04:22:33;100777.06;;;8.60;71.42
68301;BME280;55146;47.468;18.806;2023-05-09T04:24:58;100773.84;;;8.63;71.38
68301;BME280;55146;47.468;18.806;2023-05-09T04:27:23;100778.72;;;8.61;70.74
68301;BME280;55146;47.468;18.806;2023-05-09T04:29:49;100780.50;;;8.67;70.83
68301;BME280;55146;47.468;18.806;2023-05-09T04:32:15;100774.28;;;8.72;70.58
68301;BME280;55146;47.468;18.806;2023-05-09T04:34:41;100782.34;;;8.78;70.25
68301;BME280;55146;47.468;18.806;2023-05-09T04:37:07;100779.47;;;8.85;70.33
68301;BME280;55146;47.468;18.806;2023-05-09T04:39:33;100783.72;;;8.92;69.93
68301;BME280;55146;47.468;18.806;2023-05-09T04:41:58;100785.72;;;8.97;69.66
68301;BME280;55146;47.468;18.806;2023-05-09T04:44:23;100777.47;;;8.97;69.15
68301;BME280;55146;47.468;18.806;2023-05-09T04:46:49;100778.41;;;9.03;68.26
68301;BME280;55146;47.468;18.806;2023-05-09T04:49:14;100774.09;;;9.07;67.47
68301;BME280;55146;47.468;18.806;2023-05-09T04:51:40;100781.81;;;9.10;66.83
68301;BME280;55146;47.468;18.806;2023-05-09T04:54:05;100783.41;;;9.06;66.55
68301;BME280;55146;47.468;18.806;2023-05-09T04:56:31;100779.44;;;9.13;67.81
68301;BME280;55146;47.468;18.806;2023-05-09T04:58:56;100779.53;;;9.18;67.41
68301;BME280;55146;47.468;18.806;2023-05-09T05:01:21;100779.09;;;9.26;66.86
68301;BME280;55146;47.468;18.806;2023-05-09T05:03:47;100780.50;;;9.29;66.27
68301;BME280;55146;47.468;18.806;2023-05-09T05:06:12;100782.50;;;9.33;65.80
68301;BME280;55146;47.468;18.806;2023-05-09T05:08:37;100780.94;;;9.38;65.44
68301;BME280;55146;47.468;18.806;2023-05-09T05:11:03;100779.84;;;9.39;66.34
68301;BME280;55146;47.468;18.806;2023-05-09T05:13:28;100780.50;;;9.46;64.01
68301;BME280;55146;47.468;18.806;2023-05-09T05:15:53;100777.03;;;9.50;64.03
68301;BME280;55146;47.468;18.806;2023-05-09T05:18:19;100786.25;;;9.61;63.81
68301;BME280;55146;47.468;18.806;2023-05-09T05:20:44;100781.16;;;9.69;62.96
68301;BME280;55146;47.468;18.806;2023-05-09T05:23:10;100780.91;;;9.71;63.11
68301;BME280;55146;47.468;18.806;2023-05-09T05:25:36;100776.31;;;9.77;63.40
68301;BME280;55146;47.468;18.806;2023-05-09T05:28:01;100784.19;;;9.90;63.11
68301;BME280;55146;47.468;18.806;2023-05-09T05:30:26;100779.84;;;9.94;61.64
68301;BME280;55146;47.468;18.806;2023-05-09T05:32:52;100781.28;;;9.96;62.51
68301;BME280;55146;47.468;18.806;2023-05-09T05:35:17;100777.25;;;10.04;61.67
68301;BME280;55146;47.468;18.806;2023-05-09T05:37:43;100781.22;;;10.13;61.26
68301;BME280;55146;47.468;18.806;2023-05-09T05:40:09;100774.41;;;10.15;61.18
68301;BME280;55146;47.468;18.806;2023-05-09T05:42:34;100772.31;;;10.23;61.68
68301;BME280;55146;47.468;18.806;2023-05-09T05:45:00;100771.47;;;10.44;59.44
68301;BME280;55146;47.468;18.806;2023-05-09T05:47:32;100775.69;;;10.51;61.71
68301;BME280;55146;47.468;18.806;2023-05-09T05:49:58;100771.22;;;10.67;60.72
68301;BME280;55146;47.468;18.806;2023-05-09T05:52:24;100778.09;;;10.70;60.17
68301;BME280;55146;47.468;18.806;2023-05-09T05:54:50;100774.44;;;10.86;60.02
68301;BME280;55146;47.468;18.806;2023-05-09T05:57:16;100778.41;;;11.00;59.27
68301;BME280;55146;47.468;18.806;2023-05-09T05:59:41;100776.94;;;11.19;60.10
68301;BME280;55146;47.468;18.806;2023-05-09T06:02:07;100782.31;;;11.36;57.10
68301;BME280;55146;47.468;18.806;2023-05-09T06:04:32;100776.16;;;11.56;57.29
68301;BME280;55146;47.468;18.806;2023-05-09T06:06:57;100770.28;;;11.79;58.06
68301;BME280;55146;47.468;18.806;2023-05-09T06:09:23;100775.16;;;12.09;56.93
68301;BME280;55146;47.468;18.806;2023-05-09T06:11:48;100782.22;;;12.47;55.96
68301;BME280;55146;47.468;18.806;2023-05-09T06:14:13;100776.25;;;12.70;52.48
68301;BME280;55146;47.468;18.806;2023-05-09T06:16:39;100774.91;;;12.98;53.84
68301;BME280;55146;47.468;18.806;2023-05-09T06:19:04;100767.78;;;13.27;54.86
68301;BME280;55146;47.468;18.806;2023-05-09T06:21:29;100765.31;;;13.56;51.64
68301;BME280;55146;47.468;18.806;2023-05-09T06:23:55;100768.28;;;13.90;52.21
68301;BME280;55146;47.468;18.806;2023-05-09T06:26:20;100769.00;;;14.26;50.31
68301;BME280;55146;47.468;18.806;2023-05-09T06:28:46;100772.22;;;14.58;52.21
68301;BME280;55146;47.468;18.806;2023-05-09T06:31:11;100773.47;;;14.86;49.40
68301;BME280;55146;47.468;18.806;2023-05-09T06:33:37;100765.00;;;15.12;48.95
68301;BME280;55146;47.468;18.806;2023-05-09T06:36:02;100761.78;;;15.33;47.02
68301;BME280;55146;47.468;18.806;2023-05-09T06:38:28;100757.88;;;15.34;47.91
68301;BME280;55146;47.468;18.806;2023-05-09T06:40:53;100753.81;;;15.61;45.88
68301;BME280;55146;47.468;18.806;2023-05-09T06:43:19;100753.84;;;15.85;45.95
68301;BME280;55146;47.468;18.806;2023-05-09T06:45:44;100761.44;;;16.03;47.85
68301;BME280;55146;47.468;18.806;2023-05-09T06:48:09;100758.78;;;16.16;44.19
68301;BME280;55146;47.468;18.806;2023-05-09T06:50:35;100760.47;;;16.36;46.96
68301;BME280;55146;47.468;18.806;2023-05-09T06:53:00;100755.72;;;16.61;48.35
68301;BME280;55146;47.468;18.806;2023-05-09T06:55:25;100747.50;;;16.93;47.42
68301;BME280;55146;47.468;18.806;2023-05-09T06:57:51;100746.00;;;17.19;43.15
68301;BME280;55146;47.468;18.806;2023-05-09T07:00:16;100750.50;;;17.34;45.51
68301;BME280;55146;47.468;18.806;2023-05-09T07:02:41;100748.94;;;17.60;43.44
68301;BME280;55146;47.468;18.806;2023-05-09T07:05:08;100736.19;;;17.73;42.00
68301;BME280;55146;47.468;18.806;2023-05-09T07:07:34;100746.63;;;17.81;40.91
68301;BME280;55146;47.468;18.806;2023-05-09T07:09:59;100747.91;;;17.37;40.91
68301;BME280;55146;47.468;18.806;2023-05-09T07:12:25;100753.44;;;16.86;41.74
68301;BME280;55146;47.468;18.806;2023-05-09T07:14:51;100751.06;;;16.56;44.76
68301;BME280;55146;47.468;18.806;2023-05-09T07:17:16;100742.47;;;16.10;45.08
68301;BME280;55146;47.468;18.806;2023-05-09T07:19:41;100741.53;;;15.96;46.22
68301;BME280;55146;47.468;18.806;2023-05-09T07:22:07;100734.59;;;15.93;47.23
68301;BME280;55146;47.468;18.806;2023-05-09T07:24:32;100732.06;;;15.97;45.51
68301;BME280;55146;47.468;18.806;2023-05-09T07:26:57;100735.19;;;15.90;46.37
68301;BME280;55146;47.468;18.806;2023-05-09T07:29:23;100738.59;;;15.82;45.29
68301;BME280;55146;47.468;18.806;2023-05-09T07:31:48;100735.34;;;15.75;46.66
68301;BME280;55146;47.468;18.806;2023-05-09T07:34:15;100731.56;;;15.66;46.62
68301;BME280;55146;47.468;18.806;2023-05-09T07:36:40;100725.47;;;15.64;47.01
68301;BME280;55146;47.468;18.806;2023-05-09T07:39:06;100726.53;;;15.68;47.21
68301;BME280;55146;47.468;18.806;2023-05-09T07:41:32;100722.25;;;15.81;47.89
68301;BME280;55146;47.468;18.806;2023-05-09T07:43:57;100722.44;;;15.89;48.58
68301;BME280;55146;47.468;18.806;2023-05-09T07:46:23;100714.94;;;15.66;45.99
68301;BME280;55146;47.468;18.806;2023-05-09T07:48:48;100716.25;;;15.73;44.10
68301;BME280;55146;47.468;18.806;2023-05-09T07:51:13;100717.47;;;15.86;45.71
68301;BME280;55146;47.468;18.806;2023-05-09T07:53:39;100704.84;;;16.23;46.94
68301;BME280;55146;47.468;18.806;2023-05-09T07:56:05;100707.31;;;16.67;46.69
68301;BME280;55146;47.468;18.806;2023-05-09T07:58:33;100705.13;;;17.52;47.81
68301;BME280;55146;47.468;18.806;2023-05-09T08:00:58;100702.00;;;18.13;42.53
68301;BME280;55146;47.468;18.806;2023-05-09T08:03:24;100696.69;;;18.53;44.26
68301;BME280;55146;47.468;18.806;2023-05-09T08:05:52;100693.53;;;18.32;38.74
68301;BME280;55146;47.468;18.806;2023-05-09T08:08:19;100693.00;;;18.44;38.39
68301;BME280;55146;47.468;18.806;2023-05-09T08:10:44;100689.47;;;18.66;42.92
68301;BME280;55146;47.468;18.806;2023-05-09T08:13:10;100688.91;;;19.13;41.76
68301;BME280;55146;47.468;18.806;2023-05-09T08:15:35;100683.47;;;19.61;41.92
68301;BME280;55146;47.468;18.806;2023-05-09T08:18:00;100679.75;;;20.05;39.93
68301;BME280;55146;47.468;18.806;2023-05-09T08:20:26;100684.03;;;20.20;38.42
68301;BME280;55146;47.468;18.806;2023-05-09T08:22:51;100679.22;;;20.43;39.29
68301;BME280;55146;47.468;18.806;2023-05-09T08:25:16;100679.91;;;20.66;39.98
68301;BME280;55146;47.468;18.806;2023-05-09T08:27:42;100675.47;;;20.82;38.84
68301;BME280;55146;47.468;18.806;2023-05-09T08:30:08;100677.44;;;20.90;38.65
68301;BME280;55146;47.468;18.806;2023-05-09T08:32:33;100672.34;;;21.09;38.63
68301;BME280;55146;47.468;18.806;2023-05-09T08:34:59;100671.34;;;20.96;33.61
68301;BME280;55146;47.468;18.806;2023-05-09T08:37:24;100667.22;;;20.68;35.13
68301;BME280;55146;47.468;18.806;2023-05-09T08:39:51;100670.69;;;20.74;34.45
68301;BME280;55146;47.468;18.806;2023-05-09T08:42:17;100673.66;;;21.03;38.73
68301;BME280;55146;47.468;18.806;2023-05-09T08:44:46;100664.13;;;21.04;34.84
68301;BME280;55146;47.468;18.806;2023-05-09T08:47:12;100657.19;;;21.27;37.29
68301;BME280;55146;47.468;18.806;2023-05-09T08:49:39;100651.53;;;21.45;38.06
68301;BME280;55146;47.468;18.806;2023-05-09T08:52:05;100662.66;;;21.70;34.17
68301;BME280;55146;47.468;18.806;2023-05-09T08:54:30;100655.88;;;21.80;35.59
68301;BME280;55146;47.468;18.806;2023-05-09T08:56:56;100654.56;;;21.77;32.40
68301;BME280;55146;47.468;18.806;2023-05-09T08:59:22;100659.94;;;21.45;36.13
68301;BME280;55146;47.468;18.806;2023-05-09T09:01:48;100655.28;;;21.66;34.83
68301;BME280;55146;47.468;18.806;2023-05-09T09:04:15;100656.06;;;21.75;34.13
68301;BME280;55146;47.468;18.806;2023-05-09T09:06:40;100654.78;;;21.64;33.83
68301;BME280;55146;47.468;18.806;2023-05-09T09:09:07;100649.06;;;21.43;33.22
68301;BME280;55146;47.468;18.806;2023-05-09T09:11:34;100643.50;;;21.34;34.99
68301;BME280;55146;47.468;18.806;2023-05-09T09:14:05;100639.94;;;20.91;37.71
68301;BME280;55146;47.468;18.806;2023-05-09T09:16:32;100641.06;;;20.90;37.06
68301;BME280;55146;47.468;18.806;2023-05-09T09:18:59;100629.53;;;21.34;35.50
68301;BME280;55146;47.468;18.806;2023-05-09T09:21:25;100631.44;;;21.51;37.12
68301;BME280;55146;47.468;18.806;2023-05-09T09:23:51;100627.75;;;21.68;35.25
68301;BME280;55146;47.468;18.806;2023-05-09T09:26:19;100634.38;;;21.93;35.70
68301;BME280;55146;47.468;18.806;2023-05-09T09:28:45;100630.81;;;22.22;34.48
68301;BME280;55146;47.468;18.806;2023-05-09T09:31:30;100636.50;;;22.34;32.86
68301;BME280;55146;47.468;18.806;2023-05-09T09:34:00;100628.50;;;22.44;35.81
68301;BME280;55146;47.468;18.806;2023-05-09T09:36:29;100635.62;;;22.12;33.93
68301;BME280;55146;47.468;18.806;2023-05-09T09:39:00;100626.19;;;21.79;33.87
68301;BME280;55146;47.468;18.806;2023-05-09T09:41:44;100629.66;;;21.29;36.27
68301;BME280;55146;47.468;18.806;2023-05-09T09:46:54;100632.66;;;21.33;34.54
68301;BME280;55146;47.468;18.806;2023-05-09T09:49:21;100624.25;;;21.24;35.23
68301;BME280;55146;47.468;18.806;2023-05-09T09:51:52;100623.94;;;21.17;35.78
68301;BME280;55146;47.468;18.806;2023-05-09T09:54:18;100621.13;;;21.17;36.17
68301;BME280;55146;47.468;18.806;2023-05-09T09:56:48;100613.44;;;20.97;36.08
68301;BME280;55146;47.468;18.806;2023-05-09T09:59:18;100621.00;;;20.62;35.22
68301;BME280;55146;47.468;18.806;2023-05-09T10:04:21;100608.62;;;21.06;36.66
68301;BME280;55146;47.468;18.806;2023-05-09T10:06:54;100598.44;;;21.19;34.95
68301;BME280;55146;47.468;18.806;2023-05-09T10:09:21;100606.84;;;20.76;36.12
68301;BME280;55146;47.468;18.806;2023-05-09T10:11:49;100601.25;;;21.02;35.10
68301;BME280;55146;47.468;18.806;2023-05-09T10:14:18;100609.16;;;20.82;34.64
68301;BME280;55146;47.468;18.806;2023-05-09T10:16:46;100605.47;;;21.33;37.15
68301;BME280;55146;47.468;18.806;2023-05-09T10:19:12;100605.59;;;21.46;35.81
68301;BME280;55146;47.468;18.806;2023-05-09T10:21:38;100599.91;;;21.25;33.64
68301;BME280;55146;47.468;18.806;2023-05-09T10:24:05;100594.44;;;21.11;33.79
68301;BME280;55146;47.468;18.806;2023-05-09T10:26:35;100592.53;;;21.03;33.99
68301;BME280;55146;47.468;18.806;2023-05-09T10:29:05;100593.81;;;21.23;34.24
68301;BME280;55146;47.468;18.806;2023-05-09T10:31:34;100590.78;;;21.36;31.51
68301;BME280;55146;47.468;18.806;2023-05-09T10:34:04;100587.56;;;21.09;35.16
68301;BME280;55146;47.468;18.806;2023-05-09T10:36:33;100582.97;;;20.95;30.94
68301;BME280;55146;47.468;18.806;2023-05-09T10:38:58;100578.38;;;21.17;30.76
68301;BME280;55146;47.468;18.806;2023-05-09T10:41:24;100588.75;;;21.54;31.28
68301;BME280;55146;47.468;18.806;2023-05-09T10:43:50;100581.44;;;21.70;29.26
68301;BME280;55146;47.468;18.806;2023-05-09T10:46:16;100589.56;;;22.22;31.54
68301;BME280;55146;47.468;18.806;2023-05-09T10:48:42;100588.97;;;22.58;31.80
68301;BME280;55146;47.468;18.806;2023-05-09T10:51:09;100591.66;;;22.75;32.28
68301;BME280;55146;47.468;18.806;2023-05-09T10:53:40;100593.00;;;22.69;31.59
68301;BME280;55146;47.468;18.806;2023-05-09T10:56:21;100594.16;;;22.27;32.35
68301;BME280;55146;47.468;18.806;2023-05-09T10:58:47;100588.31;;;21.82;30.85
68301;BME280;55146;47.468;18.806;2023-05-09T11:01:12;100583.94;;;21.25;30.08
68301;BME280;55146;47.468;18.806;2023-05-09T11:03:54;100579.87;;;20.63;31.32
68301;BME280;55146;47.468;18.806;2023-05-09T11:06:39;100587.13;;;20.46;32.63
68301;BME280;55146;47.468;18.806;2023-05-09T11:09:27;100586.97;;;20.77;33.53
68301;BME280;55146;47.468;18.806;2023-05-09T11:12:14;100585.97;;;20.73;34.14
68301;BME280;55146;47.468;18.806;2023-05-09T11:14:47;100565.22;;;20.74;32.40
68301;BME280;55146;47.468;18.806;2023-05-09T11:22:12;100558.13;;;21.03;31.63
68301;BME280;55146;47.468;18.806;2023-05-09T11:24:38;100558.53;;;20.67;34.84
68301;BME280;55146;47.468;18.806;2023-05-09T11:27:23;100565.75;;;20.59;33.86
68301;BME280;55146;47.468;18.806;2023-05-09T11:30:03;100562.13;;;20.58;34.38
68301;BME280;55146;47.468;18.806;2023-05-09T11:32:34;100563.78;;;20.59;34.57
68301;BME280;55146;47.468;18.806;2023-05-09T11:35:09;100553.88;;;20.19;34.09
68301;BME280;55146;47.468;18.806;2023-05-09T11:37:51;100553.56;;;20.12;34.29
68301;BME280;55146;47.468;18.806;2023-05-09T11:40:20;100548.66;;;20.35;36.45
68301;BME280;55146;47.468;18.806;2023-05-09T11:42:48;100553.75;;;20.33;35.28
68301;BME280;55146;47.468;18.806;2023-05-09T11:45:14;100546.31;;;20.19;35.26
68301;BME280;55146;47.468;18.806;2023-05-09T11:47:40;100545.00;;;20.26;37.83
68301;BME280;55146;47.468;18.806;2023-05-09T11:50:07;100536.97;;;20.67;31.96
68301;BME280;55146;47.468;18.806;2023-05-09T11:52:34;100540.06;;;20.83;34.74
68301;BME280;55146;47.468;18.806;2023-05-09T11:54:59;100539.56;;;20.98;34.22
68301;BME280;55146;47.468;18.806;2023-05-09T11:57:26;100533.44;;;20.96;33.58
68301;BME280;55146;47.468;18.806;2023-05-09T11:59:52;100526.75;;;20.80;34.35
68301;BME280;55146;47.468;18.806;2023-05-09T12:02:17;100522.66;;;20.51;35.42
68301;BME280;55146;47.468;18.806;2023-05-09T12:04:43;100513.44;;;20.77;35.70
68301;BME280;55146;47.468;18.806;2023-05-09T12:07:10;100511.13;;;20.79;32.90
68301;BME280;55146;47.468;18.806;2023-05-09T12:09:37;100515.47;;;21.06;34.67
68301;BME280;55146;47.468;18.806;2023-05-09T12:12:12;100514.59;;;21.60;35.68
68301;BME280;55146;47.468;18.806;2023-05-09T12:14:40;100518.97;;;21.78;33.01
68301;BME280;55146;47.468;18.806;2023-05-09T12:17:08;100522.84;;;21.27;30.84
68301;BME280;55146;47.468;18.806;2023-05-09T12:19:34;100509.03;;;20.58;31.34
68301;BME280;55146;47.468;18.806;2023-05-09T12:22:02;100508.19;;;20.49;32.03
68301;BME280;55146;47.468;18.806;2023-05-09T12:24:28;100503.59;;;20.53;33.19
68301;BME280;55146;47.468;18.806;2023-05-09T12:26:55;100510.81;;;20.63;33.25
68301;BME280;55146;47.468;18.806;2023-05-09T12:29:21;100513.62;;;20.11;34.34
68301;BME280;55146;47.468;18.806;2023-05-09T12:31:48;100509.97;;;19.85;35.79
68301;BME280;55146;47.468;18.806;2023-05-09T12:34:14;100508.81;;;19.77;35.17
68301;BME280;55146;47.468;18.806;2023-05-09T12:36:42;100504.69;;;19.84;35.75
68301;BME280;55146;47.468;18.806;2023-05-09T12:39:18;100504.22;;;19.90;34.80
68301;BME280;55146;47.468;18.806;2023-05-09T12:41:49;100494.50;;;19.70;36.65
68301;BME280;55146;47.468;18.806;2023-05-09T12:44:23;100484.69;;;20.16;37.69
68301;BME280;55146;47.468;18.806;2023-05-09T12:47:03;100477.44;;;20.58;33.63
68301;BME280;55146;47.468;18.806;2023-05-09T12:49:29;100489.44;;;20.58;33.93
68301;BME280;55146;47.468;18.806;2023-05-09T12:51:57;100481.91;;;20.42;34.13
68301;BME280;55146;47.468;18.806;2023-05-09T12:54:25;100472.03;;;20.53;33.60
68301;BME280;55146;47.468;18.806;2023-05-09T12:56:52;100457.69;;;20.72;32.75